createdAt,value
2022-08-03T00:00:15.214Z,20.30
2022-08-03T00:03:57.291Z,20.30
2022-08-03T00:07:40.275Z,20.30
2022-08-03T00:11:22.422Z,20.30
2022-08-03T00:15:08.239Z,20.30
2022-08-03T00:18:53.482Z,20.30
2022-08-03T00:22:35.977Z,20.20
2022-08-03T00:26:18.168Z,20.10
2022-08-03T00:30:00.595Z,20.00
2022-08-03T00:33:59.751Z,19.90
2022-08-03T00:37:44.665Z,19.80
2022-08-03T00:41:26.598Z,19.70
2022-08-03T00:45:08.819Z,19.70
2022-08-03T00:48:51.187Z,19.70
2022-08-03T00:52:33.140Z,19.70
2022-08-03T00:56:16.511Z,19.60
2022-08-03T01:00:00.263Z,19.60
2022-08-03T01:03:42.409Z,19.50
2022-08-03T01:07:32.216Z,19.50
2022-08-03T01:11:34.018Z,19.40
2022-08-03T01:15:43.473Z,19.30
2022-08-03T01:19:25.334Z,19.30
2022-08-03T01:23:28.840Z,19.30
2022-08-03T01:27:15.946Z,19.30
2022-08-03T01:31:05.480Z,19.40
2022-08-03T01:34:52.877Z,19.40
2022-08-03T01:38:38.708Z,19.50
2022-08-03T01:42:21.849Z,19.50
2022-08-03T01:46:05.490Z,19.50
2022-08-03T01:49:50.086Z,19.50
2022-08-03T01:53:35.019Z,19.50
2022-08-03T01:57:18.902Z,19.50
2022-08-03T02:01:02.573Z,19.40
2022-08-03T02:04:46.101Z,19.40
2022-08-03T02:08:29.745Z,19.40
2022-08-03T02:12:14.192Z,19.40
2022-08-03T02:15:58.237Z,19.40
2022-08-03T02:19:41.223Z,19.40
2022-08-03T02:23:23.400Z,19.40
2022-08-03T02:27:14.548Z,19.50
2022-08-03T02:30:58.093Z,19.60
2022-08-03T02:34:42.296Z,19.60
2022-08-03T02:38:29.395Z,19.60
2022-08-03T02:42:14.445Z,19.60
2022-08-03T02:45:56.568Z,19.60
2022-08-03T02:49:51.510Z,19.70
2022-08-03T02:53:34.680Z,19.70
2022-08-03T02:57:19.395Z,19.70
2022-08-03T03:01:03.235Z,19.80
2022-08-03T03:05:55.075Z,19.80
2022-08-03T03:08:49.059Z,19.80
2022-08-03T03:12:33.314Z,19.80
2022-08-03T03:16:16.430Z,19.70
2022-08-03T03:19:59.109Z,19.70
2022-08-03T03:23:42.154Z,19.70
2022-08-03T03:27:24.668Z,19.70
2022-08-03T03:31:09.648Z,19.70
2022-08-03T03:34:51.826Z,19.60
2022-08-03T03:38:34.341Z,19.50
2022-08-03T03:42:16.931Z,19.50
2022-08-03T03:45:59.373Z,19.40
2022-08-03T03:49:42.948Z,19.40
2022-08-03T03:53:25.136Z,19.40
2022-08-03T03:57:07.391Z,19.40
2022-08-03T04:00:54.102Z,19.40
2022-08-03T04:04:55.357Z,19.40
2022-08-03T04:08:56.063Z,19.40
2022-08-03T04:12:39.325Z,19.40
2022-08-03T04:16:37.982Z,19.40
2022-08-03T04:20:24.155Z,19.30
2022-08-03T04:24:09.528Z,19.30
2022-08-03T04:28:27.423Z,19.30
2022-08-03T04:31:56.568Z,19.30
2022-08-03T04:36:00.968Z,19.30
2022-08-03T04:39:42.897Z,19.40
2022-08-03T04:43:26.175Z,19.40
2022-08-03T04:47:08.696Z,19.50
2022-08-03T04:50:51.025Z,19.60
2022-08-03T04:54:40.744Z,19.60
2022-08-03T04:58:22.713Z,19.70
2022-08-03T05:02:04.829Z,19.70
2022-08-03T05:05:50.369Z,19.80
2022-08-03T05:09:49.954Z,19.90
2022-08-03T05:13:34.666Z,19.90
2022-08-03T05:17:16.742Z,19.90
2022-08-03T05:20:58.655Z,20.00
2022-08-03T05:24:41.048Z,20.00
2022-08-03T05:28:56.177Z,20.10
2022-08-03T05:32:38.451Z,20.10
2022-08-03T05:36:32.202Z,20.10
2022-08-03T05:40:14.864Z,20.10
2022-08-03T05:43:58.074Z,20.10
2022-08-03T05:47:48.667Z,20.10
2022-08-03T05:51:31.725Z,20.00
2022-08-03T05:55:14.758Z,19.90
2022-08-03T05:59:16.485Z,19.90
2022-08-03T06:03:06.215Z,19.80
2022-08-03T06:06:56.139Z,19.70
2022-08-03T06:10:39.045Z,19.60
2022-08-03T06:14:21.440Z,19.60
2022-08-03T06:18:12.773Z,19.60
2022-08-03T06:21:54.863Z,19.60
2022-08-03T06:25:37.234Z,19.50
2022-08-03T06:29:31.008Z,19.60
2022-08-03T06:33:12.969Z,19.50
2022-08-03T06:37:01.269Z,19.50
2022-08-03T06:40:43.853Z,19.50
2022-08-03T06:44:27.259Z,19.50
2022-08-03T06:48:11.561Z,19.50
2022-08-03T06:52:05.315Z,19.60
2022-08-03T06:55:54.194Z,19.70
2022-08-03T07:00:05.993Z,19.80
2022-08-03T07:03:54.911Z,19.90
2022-08-03T07:07:57.879Z,20.00
2022-08-03T07:11:40.029Z,20.10
2022-08-03T07:19:29.485Z,20.20
2022-08-03T07:23:11.996Z,20.20
2022-08-03T07:27:19.811Z,20.40
2022-08-03T07:31:02.154Z,20.50
2022-08-03T07:38:39.475Z,20.60
2022-08-03T07:46:23.460Z,20.50
2022-08-03T07:50:09.318Z,20.50
2022-08-03T08:02:10.595Z,20.60
2022-08-03T08:05:53.817Z,20.90
2022-08-03T08:09:53.503Z,21.20
2022-08-03T08:13:37.745Z,21.40
2022-08-03T08:21:27.484Z,21.90
2022-08-03T08:26:02.197Z,22.10
2022-08-03T08:30:12.323Z,22.30
2022-08-03T08:34:04.575Z,22.40
2022-08-03T08:38:07.441Z,22.40
2022-08-03T08:41:53.364Z,22.50
2022-08-03T08:45:57.101Z,22.50
2022-08-03T08:49:53.428Z,22.70
2022-08-03T08:53:53.989Z,22.80
2022-08-03T08:57:43.416Z,22.90
2022-08-03T09:01:41.177Z,23.10
2022-08-03T09:05:41.405Z,23.00
2022-08-03T09:10:10.427Z,23.00
2022-08-03T09:13:36.485Z,23.10
2022-08-03T09:17:39.683Z,23.30
2022-08-03T09:21:33.553Z,23.50
2022-08-03T09:25:37.257Z,23.60
2022-08-03T09:29:21.014Z,23.80
2022-08-03T09:33:15.584Z,23.90
2022-08-03T09:36:58.546Z,23.80
2022-08-03T09:44:51.191Z,23.90
2022-08-03T09:52:49.874Z,24.20
2022-08-03T09:56:52.181Z,24.30
2022-08-03T10:01:25.275Z,24.30
2022-08-03T10:05:09.771Z,24.20
2022-08-03T10:09:15.725Z,24.30
2022-08-03T10:12:58.539Z,24.30
2022-08-03T10:16:41.282Z,24.40
2022-08-03T10:20:36.913Z,24.20
2022-08-03T10:24:26.530Z,23.90
2022-08-03T10:28:24.437Z,23.50
2022-08-03T10:33:49.142Z,23.30
2022-08-03T10:37:32.275Z,23.00
2022-08-03T10:41:16.958Z,23.00
2022-08-03T10:45:23.529Z,23.00
2022-08-03T10:49:06.742Z,22.90
2022-08-03T10:53:14.703Z,22.90
2022-08-03T11:01:59.503Z,23.00
2022-08-03T11:05:55.162Z,23.00
2022-08-03T11:14:00.397Z,23.10
2022-08-03T11:18:11.183Z,23.30
2022-08-03T11:21:55.842Z,23.40
2022-08-03T11:26:10.645Z,23.30
2022-08-03T11:34:10.267Z,23.20
2022-08-03T11:38:14.545Z,23.20
2022-08-03T11:41:56.949Z,23.30
2022-08-03T11:45:39.062Z,23.40
2022-08-03T11:49:31.075Z,23.30
2022-08-03T11:53:18.699Z,23.30
2022-08-03T11:59:16.953Z,23.30
2022-08-03T12:01:52.458Z,23.10
2022-08-03T12:05:51.262Z,22.80
2022-08-03T12:10:11.043Z,22.70
2022-08-03T12:14:49.909Z,22.60
2022-08-03T12:18:46.818Z,22.40
2022-08-03T12:22:37.575Z,22.10
2022-08-03T12:26:56.785Z,22.00
2022-08-03T12:30:41.833Z,21.80
2022-08-03T12:34:50.649Z,21.50
2022-08-03T12:38:36.392Z,21.40
2022-08-03T12:42:40.565Z,21.30
2022-08-03T12:46:22.830Z,21.40
2022-08-03T12:50:27.647Z,21.80
2022-08-03T12:54:24.582Z,22.10
2022-08-03T12:58:36.808Z,22.50
2022-08-03T13:06:26.696Z,23.20
2022-08-03T13:10:09.639Z,23.50
2022-08-03T13:13:59.921Z,23.80
2022-08-03T13:17:43.439Z,23.90
2022-08-03T13:21:25.760Z,24.00
2022-08-03T13:25:17.197Z,24.00
2022-08-03T13:28:59.285Z,23.90
2022-08-03T13:37:08.124Z,23.80
2022-08-03T13:41:05.039Z,23.80
2022-08-03T13:44:47.639Z,23.90
2022-08-03T13:48:59.257Z,24.10
2022-08-03T13:52:41.641Z,24.20
2022-08-03T13:56:53.012Z,24.20
2022-08-03T14:00:35.556Z,24.20
2022-08-03T14:04:40.115Z,24.10
2022-08-03T14:08:22.245Z,24.10
2022-08-03T14:12:08.600Z,24.20
2022-08-03T14:16:09.905Z,24.30
2022-08-03T14:19:54.037Z,24.60
2022-08-03T14:24:08.402Z,24.90
2022-08-03T14:27:50.828Z,25.10
2022-08-03T14:32:09.439Z,25.40
2022-08-03T14:36:14.584Z,25.60
2022-08-03T14:40:00.274Z,25.80
2022-08-03T14:44:05.894Z,26.00
2022-08-03T14:50:10.325Z,26.10
2022-08-03T14:51:59.815Z,26.20
2022-08-03T14:55:49.914Z,26.20
2022-08-03T14:59:54.145Z,26.30
2022-08-03T15:03:39.545Z,26.50
2022-08-03T15:07:45.794Z,26.70
2022-08-03T15:11:28.409Z,27.00
2022-08-03T15:15:11.026Z,27.20
2022-08-03T15:20:02.078Z,27.30
2022-08-03T15:23:32.369Z,27.30
2022-08-03T15:27:15.620Z,27.20
2022-08-03T15:30:57.742Z,27.20
2022-08-03T15:34:50.145Z,27.20
2022-08-03T15:38:33.194Z,27.30
2022-08-03T15:46:30.754Z,27.50
2022-08-03T15:50:59.098Z,27.50
2022-08-03T15:55:09.662Z,27.50
2022-08-03T15:59:03.689Z,27.60
2022-08-03T16:03:09.509Z,27.60
2022-08-03T16:06:52.052Z,27.60
2022-08-03T16:10:56.265Z,27.50
2022-08-03T16:14:51.439Z,27.50
2022-08-03T16:18:49.252Z,27.30
2022-08-03T16:22:31.348Z,27.00
2022-08-03T16:27:01.690Z,26.70
2022-08-03T16:31:09.498Z,26.50
2022-08-03T16:34:51.858Z,26.20
2022-08-03T16:42:35.698Z,25.80
2022-08-03T16:46:17.922Z,25.60
2022-08-03T16:50:19.850Z,25.40
2022-08-03T16:54:07.879Z,25.20
2022-08-03T16:58:09.234Z,25.00
2022-08-03T17:01:55.440Z,24.80
2022-08-03T17:06:04.903Z,24.60
2022-08-03T17:09:51.826Z,24.40
2022-08-03T17:13:56.000Z,24.30
2022-08-03T17:17:43.727Z,24.10
2022-08-03T17:21:59.239Z,24.00
2022-08-03T17:26:01.412Z,23.90
2022-08-03T17:29:59.700Z,23.80
2022-08-03T17:33:43.698Z,23.70
2022-08-03T17:37:57.762Z,23.60
2022-08-03T17:45:54.608Z,23.50
2022-08-03T17:49:59.338Z,23.40
2022-08-03T17:53:49.441Z,23.30
2022-08-03T17:58:02.750Z,23.10
2022-08-03T18:06:12.858Z,23.00
2022-08-03T18:10:20.090Z,22.90
2022-08-03T18:14:17.005Z,22.80
2022-08-03T18:18:14.798Z,22.60
2022-08-03T18:22:03.419Z,22.50
2022-08-03T18:29:46.566Z,22.30
2022-08-03T18:34:32.954Z,22.20
2022-08-03T18:38:49.400Z,22.10
2022-08-03T18:43:18.889Z,21.90
2022-08-03T18:47:43.454Z,21.80
2022-08-03T18:52:02.030Z,21.80
2022-08-03T18:56:02.442Z,21.60
2022-08-03T19:00:05.889Z,21.50
2022-08-03T19:04:24.399Z,21.50
2022-08-03T19:12:41.689Z,21.50
2022-08-03T19:16:44.359Z,21.50
2022-08-03T19:20:31.036Z,21.40
2022-08-03T19:24:59.057Z,21.20
2022-08-03T19:29:14.745Z,21.10
2022-08-03T19:32:57.989Z,20.90
2022-08-03T19:37:00.905Z,20.80
2022-08-03T19:40:51.109Z,20.60
2022-08-03T19:45:10.975Z,20.50
2022-08-03T19:53:11.787Z,20.10
2022-08-03T19:57:19.585Z,20.00
2022-08-03T20:01:19.379Z,19.90
2022-08-03T20:05:14.801Z,19.80
2022-08-03T20:08:58.891Z,19.70
2022-08-03T20:12:41.583Z,19.70
2022-08-03T20:16:23.910Z,19.60
2022-08-03T20:20:06.619Z,19.50
2022-08-03T20:24:03.394Z,19.50
2022-08-03T20:28:07.776Z,19.50
2022-08-03T20:32:07.675Z,19.50
2022-08-03T20:35:52.927Z,19.50
2022-08-03T20:39:37.098Z,19.50
2022-08-03T20:43:20.098Z,19.60
2022-08-03T20:47:04.100Z,19.60
2022-08-03T20:50:46.859Z,19.60
2022-08-03T20:54:31.619Z,19.60
2022-08-03T20:58:14.678Z,19.70
2022-08-03T21:01:57.417Z,19.70
2022-08-03T21:05:51.093Z,19.70
2022-08-03T21:09:49.690Z,19.70
2022-08-03T21:13:50.375Z,19.80
2022-08-03T21:17:41.672Z,19.70
2022-08-03T21:21:26.274Z,19.80
2022-08-03T21:25:10.479Z,19.80
2022-08-03T21:28:56.215Z,19.80
2022-08-03T21:32:41.524Z,19.70
2022-08-03T21:36:28.173Z,19.60
2022-08-03T21:40:12.747Z,19.50
2022-08-03T21:43:55.210Z,19.50
2022-08-03T21:47:39.421Z,19.30
2022-08-03T21:51:26.602Z,19.20
2022-08-03T21:55:18.533Z,19.00
2022-08-03T21:59:16.081Z,18.90
2022-08-03T22:03:10.642Z,18.70
2022-08-03T22:07:00.142Z,18.50
2022-08-03T22:10:46.585Z,18.30
2022-08-03T22:14:29.384Z,18.20
2022-08-03T22:18:12.025Z,18.10
2022-08-03T22:21:54.791Z,18.00
2022-08-03T22:25:40.093Z,17.90
2022-08-03T22:29:22.313Z,17.90
2022-08-03T22:33:10.941Z,17.90
2022-08-03T22:37:02.219Z,18.00
2022-08-03T22:40:44.472Z,18.00
2022-08-03T22:44:27.261Z,18.10
2022-08-03T22:48:10.168Z,18.10
2022-08-03T22:51:53.046Z,18.10
2022-08-03T22:55:35.319Z,18.10
2022-08-03T22:59:38.991Z,18.10
2022-08-03T23:04:00.837Z,18.10
2022-08-03T23:07:32.014Z,18.10
2022-08-03T23:11:17.793Z,18.20
2022-08-03T23:15:02.592Z,18.20
2022-08-03T23:18:48.779Z,18.20
2022-08-03T23:22:32.829Z,18.20
2022-08-03T23:26:15.610Z,18.30
2022-08-03T23:29:59.456Z,18.20
2022-08-03T23:33:44.490Z,18.10
2022-08-03T23:37:27.088Z,17.90
2022-08-03T23:41:09.768Z,17.80
2022-08-03T23:44:55.189Z,17.70
2022-08-03T23:48:37.064Z,17.50
2022-08-03T23:52:36.775Z,17.40
2022-08-03T23:56:35.795Z,17.30
